Terminal Aerodrome Forecast
Issued by NWS

Home | Current Version | Previous Version | Text Only | Print | Product List | Glossary On
Versions: 1 2 3 4 5 6 7 8 9 10 11 12 13 14
000
FTUS45 KSLC 242340
TAF36U
TAF
K36U 242340Z 2500/2524 08007KT P6SM -SHRA SCT025 BKN040
     FM250200 VRB06KT P6SM VCSH SCT045 BKN080
      TEMPO 2502/2506 -SHRA BKN035
     FM250900 33008KT 5SM -SHRASN SCT010 BKN020
     FM252100 33008KT P6SM VCSH BKN045=

USA.gov is the U.S. government's official web portal to all federal, state and local government web resources and services.